createdAt,value
2022-10-28T00:00:48.792Z,101761.75
2022-10-28T00:03:16.005Z,101753.19
2022-10-28T00:05:42.851Z,101742.44
2022-10-28T00:08:09.936Z,101749.03
2022-10-28T00:10:36.945Z,101755.16
2022-10-28T00:13:03.785Z,101746.81
2022-10-28T00:15:31.092Z,101756.25
2022-10-28T00:17:57.895Z,101737.03
2022-10-28T00:20:24.736Z,101737.56
2022-10-28T00:22:51.512Z,101744.66
2022-10-28T00:25:24.530Z,101742.34
2022-10-28T00:27:52.864Z,101744.19
2022-10-28T00:30:20.586Z,101734.28
2022-10-28T00:32:47.438Z,101727.28
2022-10-28T00:35:14.324Z,101727.28
2022-10-28T00:37:41.242Z,101734.09
2022-10-28T00:40:08.722Z,101730.84
2022-10-28T00:42:35.630Z,101722.06
2022-10-28T00:45:04.018Z,101720.06
2022-10-28T00:47:39.990Z,101723.84
2022-10-28T00:50:09.751Z,101711.44
2022-10-28T00:52:37.222Z,101682.97
2022-10-28T00:55:04.634Z,101668.53
2022-10-28T00:57:34.876Z,101651.00
2022-10-28T01:00:04.814Z,101635.78
2022-10-28T01:02:34.417Z,101615.94
2022-10-28T01:05:01.430Z,101656.91
2022-10-28T01:07:28.694Z,101686.19
2022-10-28T01:09:55.693Z,101694.91
2022-10-28T01:12:39.790Z,101692.97
2022-10-28T01:15:18.942Z,101697.91
2022-10-28T01:17:59.751Z,101683.00
2022-10-28T01:21:03.915Z,101682.75
2022-10-28T01:24:05.012Z,101693.50
2022-10-28T01:26:56.964Z,101697.31
2022-10-28T01:30:01.292Z,101692.38
2022-10-28T01:32:39.899Z,101681.66
2022-10-28T01:35:36.232Z,101682.00
2022-10-28T01:38:31.078Z,101683.69
2022-10-28T01:41:11.769Z,101680.66
2022-10-28T01:43:51.922Z,101676.25
2022-10-28T01:46:35.318Z,101683.84
2022-10-28T01:49:23.169Z,101681.69
2022-10-28T01:52:05.946Z,101676.31
2022-10-28T01:54:34.627Z,101669.28
2022-10-28T01:57:04.819Z,101667.59
2022-10-28T01:59:33.862Z,101657.16
2022-10-28T02:04:27.695Z,101665.97
2022-10-28T02:06:57.143Z,101662.00
2022-10-28T02:09:50.079Z,101665.13
2022-10-28T02:12:33.829Z,101666.66
2022-10-28T02:17:42.776Z,101666.03
2022-10-28T02:20:40.649Z,101664.84
2022-10-28T02:23:46.453Z,101666.28
2022-10-28T02:26:32.582Z,101668.75
2022-10-28T02:29:14.818Z,101656.91
2022-10-28T02:31:55.890Z,101660.19
2022-10-28T02:34:32.471Z,101657.97
2022-10-28T02:37:03.642Z,101659.97
2022-10-28T02:39:36.959Z,101659.59
2022-10-28T02:42:12.618Z,101657.50
2022-10-28T02:44:44.170Z,101649.59
2022-10-28T02:47:18.298Z,101649.31
2022-10-28T02:49:52.041Z,101649.19
2022-10-28T02:52:21.960Z,101643.63
2022-10-28T02:54:55.757Z,101644.25
2022-10-28T02:57:29.179Z,101639.91
2022-10-28T03:00:07.335Z,101645.13
2022-10-28T03:02:34.402Z,101644.38
2022-10-28T03:05:04.259Z,101641.31
2022-10-28T03:07:31.195Z,101635.75
2022-10-28T03:09:57.965Z,101625.25
2022-10-28T03:12:24.792Z,101621.91
2022-10-28T03:14:51.569Z,101617.41
2022-10-28T03:17:18.447Z,101618.09
2022-10-28T03:19:45.204Z,101618.63
2022-10-28T03:22:12.018Z,101608.53
2022-10-28T03:24:39.340Z,101610.56
2022-10-28T03:27:06.899Z,101607.25
2022-10-28T03:29:33.718Z,101607.66
2022-10-28T03:32:00.481Z,101605.25
2022-10-28T03:34:27.349Z,101605.94
2022-10-28T03:36:54.092Z,101604.47
2022-10-28T03:39:20.903Z,101604.97
2022-10-28T03:41:47.796Z,101596.03
2022-10-28T03:44:14.622Z,101599.63
2022-10-28T03:46:41.620Z,101601.72
2022-10-28T03:49:08.412Z,101592.53
2022-10-28T03:51:35.370Z,101590.28
2022-10-28T03:54:02.224Z,101587.94
2022-10-28T03:56:28.973Z,101585.28
2022-10-28T03:58:55.757Z,101584.91
2022-10-28T04:01:22.992Z,101583.91
2022-10-28T04:03:49.931Z,101581.91
2022-10-28T04:06:17.098Z,101580.09
2022-10-28T04:08:43.894Z,101572.75
2022-10-28T04:11:10.759Z,101569.28
2022-10-28T04:13:37.544Z,101567.47
2022-10-28T04:16:07.153Z,101572.16
2022-10-28T04:18:35.443Z,101573.19
2022-10-28T04:21:03.469Z,101571.00
2022-10-28T04:23:30.289Z,101567.41
2022-10-28T04:25:57.085Z,101574.81
2022-10-28T04:28:26.641Z,101573.91
2022-10-28T04:30:53.499Z,101568.50
2022-10-28T04:33:20.367Z,101574.00
2022-10-28T04:35:47.354Z,101561.19
2022-10-28T04:38:15.494Z,101572.06
2022-10-28T04:40:42.644Z,101564.38
2022-10-28T04:43:11.737Z,101559.81
2022-10-28T04:45:39.392Z,101561.03
2022-10-28T04:48:06.851Z,101553.22
2022-10-28T04:50:33.755Z,101554.28
2022-10-28T04:53:10.636Z,101550.66
2022-10-28T04:55:37.490Z,101544.53
2022-10-28T04:58:04.759Z,101546.28
2022-10-28T05:00:31.676Z,101544.94
2022-10-28T05:03:01.477Z,101548.94
2022-10-28T05:05:28.307Z,101545.41
2022-10-28T05:07:55.486Z,101551.41
2022-10-28T05:10:22.850Z,101557.78
2022-10-28T05:12:49.645Z,101544.59
2022-10-28T05:15:16.596Z,101556.25
2022-10-28T05:17:44.734Z,101558.03
2022-10-28T05:20:13.514Z,101551.53
2022-10-28T05:22:46.604Z,101548.25
2022-10-28T05:25:13.813Z,101549.91
2022-10-28T05:27:40.617Z,101548.34
2022-10-28T05:30:08.313Z,101542.38
2022-10-28T05:32:35.193Z,101542.75
2022-10-28T05:35:02.247Z,101540.41
2022-10-28T05:37:29.288Z,101536.16
2022-10-28T05:39:56.087Z,101524.22
2022-10-28T05:42:22.847Z,101526.38
2022-10-28T05:44:49.664Z,101526.94
2022-10-28T05:47:16.472Z,101527.13
2022-10-28T05:49:43.326Z,101525.34
2022-10-28T05:52:10.080Z,101535.59
2022-10-28T05:54:36.910Z,101527.34
2022-10-28T05:57:03.756Z,101525.66
2022-10-28T05:59:30.527Z,101522.31
2022-10-28T06:01:57.308Z,101522.50
2022-10-28T06:04:24.231Z,101525.75
2022-10-28T06:06:54.205Z,101526.28
2022-10-28T06:09:21.067Z,101524.03
2022-10-28T06:11:46.480Z,101516.13
2022-10-28T06:14:13.300Z,101516.97
2022-10-28T06:16:40.155Z,101513.53
2022-10-28T06:19:06.938Z,101516.91
2022-10-28T06:21:33.738Z,101515.22
2022-10-28T06:24:00.540Z,101515.38
2022-10-28T06:26:27.443Z,101520.88
2022-10-28T06:28:54.246Z,101515.66
2022-10-28T06:31:21.040Z,101512.09
2022-10-28T06:33:47.926Z,101513.34
2022-10-28T06:36:14.812Z,101516.53
2022-10-28T06:38:41.720Z,101509.97
2022-10-28T06:41:08.588Z,101516.13
2022-10-28T06:43:35.374Z,101511.34
2022-10-28T06:46:04.066Z,101513.38
2022-10-28T06:48:32.912Z,101510.16
2022-10-28T06:50:59.844Z,101509.88
2022-10-28T06:53:26.709Z,101510.88
2022-10-28T06:55:55.492Z,101512.78
2022-10-28T06:58:23.155Z,101506.88
2022-10-28T07:00:50.482Z,101513.34
2022-10-28T07:03:19.088Z,101515.22
2022-10-28T07:05:47.554Z,101506.09
2022-10-28T07:08:14.553Z,101517.44
2022-10-28T07:10:42.221Z,101518.56
2022-10-28T07:13:09.289Z,101522.97
2022-10-28T07:15:36.077Z,101521.03
2022-10-28T07:18:02.926Z,101520.69
2022-10-28T07:20:32.054Z,101516.66
2022-10-28T07:23:00.699Z,101516.84
2022-10-28T07:25:30.010Z,101522.31
2022-10-28T07:27:58.363Z,101522.75
2022-10-28T07:30:26.039Z,101524.13
2022-10-28T07:32:53.258Z,101523.00
2022-10-28T07:35:20.454Z,101523.78
2022-10-28T07:37:47.561Z,101518.63
2022-10-28T07:40:15.084Z,101523.25
2022-10-28T07:42:41.866Z,101523.91
2022-10-28T07:45:09.477Z,101530.22
2022-10-28T07:47:36.235Z,101529.03
2022-10-28T07:50:03.838Z,101536.22
2022-10-28T07:52:30.795Z,101531.00
2022-10-28T07:54:57.604Z,101531.53
2022-10-28T07:57:24.516Z,101538.34
2022-10-28T07:59:51.295Z,101540.13
2022-10-28T08:02:20.574Z,101544.56
2022-10-28T08:04:47.588Z,101539.91
2022-10-28T08:07:14.856Z,101544.28
2022-10-28T08:09:41.965Z,101555.53
2022-10-28T08:12:09.689Z,101550.84
2022-10-28T08:14:36.562Z,101541.16
2022-10-28T08:17:03.723Z,101544.19
2022-10-28T08:19:30.653Z,101543.09
2022-10-28T08:21:57.654Z,101539.50
2022-10-28T08:24:24.651Z,101541.47
2022-10-28T08:26:51.493Z,101539.78
2022-10-28T08:29:18.304Z,101548.19
2022-10-28T08:31:45.087Z,101547.19
2022-10-28T08:34:12.162Z,101542.03
2022-10-28T08:36:39.016Z,101539.53
2022-10-28T08:39:05.981Z,101535.94
2022-10-28T08:41:52.619Z,101536.13
2022-10-28T08:44:45.407Z,101535.09
2022-10-28T08:47:32.450Z,101542.91
2022-10-28T08:50:12.304Z,101543.94
2022-10-28T08:53:00.926Z,101531.41
2022-10-28T08:55:35.588Z,101532.00
2022-10-28T08:58:13.028Z,101535.56
2022-10-28T09:00:40.350Z,101534.66
2022-10-28T09:03:13.329Z,101546.38
2022-10-28T09:05:42.508Z,101554.91
2022-10-28T09:08:19.564Z,101549.94
2022-10-28T09:11:03.881Z,101553.47
2022-10-28T09:13:49.446Z,101555.84
2022-10-28T09:16:38.736Z,101549.94
2022-10-28T09:19:23.911Z,101543.31
2022-10-28T09:22:20.710Z,101538.28
2022-10-28T09:25:11.336Z,101537.41
2022-10-28T09:27:46.863Z,101539.97
2022-10-28T09:30:28.274Z,101548.38
2022-10-28T09:33:19.588Z,101545.59
2022-10-28T09:35:48.472Z,101543.69
2022-10-28T09:38:23.607Z,101552.50
2022-10-28T09:40:55.817Z,101559.47
2022-10-28T09:43:27.293Z,101552.09
2022-10-28T09:46:00.877Z,101555.28
2022-10-28T09:48:31.782Z,101555.91
2022-10-28T09:50:59.131Z,101558.56
2022-10-28T09:53:35.923Z,101548.97
2022-10-28T09:56:06.302Z,101556.31
2022-10-28T09:58:34.656Z,101542.28
2022-10-28T10:01:03.215Z,101561.06
2022-10-28T10:03:30.035Z,101538.78
2022-10-28T10:06:03.352Z,101541.84
2022-10-28T10:08:31.309Z,101542.72
2022-10-28T10:11:07.073Z,101550.13
2022-10-28T10:13:41.426Z,101550.31
2022-10-28T10:16:21.289Z,101544.13
2022-10-28T10:18:53.142Z,101546.41
2022-10-28T10:21:45.183Z,101552.63
2022-10-28T10:24:32.125Z,101559.56
2022-10-28T10:27:21.301Z,101553.06
2022-10-28T10:29:51.438Z,101559.91
2022-10-28T10:32:19.512Z,101551.81
2022-10-28T10:35:01.714Z,101549.41
2022-10-28T10:37:33.303Z,101544.06
2022-10-28T10:40:12.444Z,101540.13
2022-10-28T10:42:46.778Z,101546.50
2022-10-28T10:45:28.248Z,101542.94
2022-10-28T10:48:28.478Z,101549.78
2022-10-28T10:50:56.119Z,101544.41
2022-10-28T10:53:31.748Z,101544.41
2022-10-28T10:56:02.476Z,101543.16
2022-10-28T10:58:33.334Z,101540.28
2022-10-28T11:01:03.330Z,101541.88
2022-10-28T11:03:36.866Z,101546.84
2022-10-28T11:09:05.254Z,101529.91
2022-10-28T11:11:37.788Z,101529.88
2022-10-28T11:14:09.063Z,101521.75
2022-10-28T11:16:48.335Z,101518.88
2022-10-28T11:19:21.791Z,101518.25
2022-10-28T11:22:07.574Z,101504.59
2022-10-28T11:24:58.857Z,101504.31
2022-10-28T11:27:55.269Z,101495.19
2022-10-28T11:30:35.744Z,101507.91
2022-10-28T11:33:33.990Z,101498.53
2022-10-28T11:36:13.234Z,101501.91
2022-10-28T11:39:19.077Z,101493.03
2022-10-28T11:42:16.370Z,101485.22
2022-10-28T11:45:05.485Z,101475.16
2022-10-28T11:47:32.368Z,101485.66
2022-10-28T11:50:06.718Z,101490.13
2022-10-28T11:53:00.527Z,101488.06
2022-10-28T11:55:42.518Z,101478.19
2022-10-28T11:58:25.335Z,101469.63
2022-10-28T12:01:08.934Z,101467.88
2022-10-28T12:03:47.940Z,101463.44
2022-10-28T12:06:33.446Z,101480.25
2022-10-28T12:09:15.524Z,101478.81
2022-10-28T12:12:05.426Z,101468.03
2022-10-28T12:14:57.051Z,101462.69
2022-10-28T12:17:51.290Z,101463.47
2022-10-28T12:20:33.063Z,101460.03
2022-10-28T12:23:12.134Z,101463.63
2022-10-28T12:25:42.325Z,101458.31
2022-10-28T12:28:45.958Z,101453.00
2022-10-28T12:31:18.779Z,101455.63
2022-10-28T12:34:14.369Z,101460.41
2022-10-28T12:36:46.469Z,101464.63
2022-10-28T12:39:21.531Z,101468.09
2022-10-28T12:42:33.398Z,101458.31
2022-10-28T12:45:03.556Z,101451.63
2022-10-28T12:47:50.105Z,101452.69
2022-10-28T12:50:32.281Z,101465.84
2022-10-28T12:53:35.861Z,101465.69
2022-10-28T12:56:12.261Z,101465.56
2022-10-28T12:58:53.981Z,101465.56
2022-10-28T13:01:23.791Z,101467.66
2022-10-28T13:03:51.043Z,101467.84
2022-10-28T13:06:20.858Z,101462.22
2022-10-28T13:09:20.076Z,101469.59
2022-10-28T13:12:22.666Z,101469.19
2022-10-28T13:17:41.751Z,101482.38
2022-10-28T13:20:39.266Z,101474.72
2022-10-28T13:23:21.254Z,101469.19
2022-10-28T13:26:06.433Z,101474.22
2022-10-28T13:28:43.927Z,101462.34
2022-10-28T13:31:11.471Z,101459.63
2022-10-28T13:33:39.396Z,101468.00
2022-10-28T13:36:26.426Z,101472.75
2022-10-28T13:38:56.750Z,101458.38
2022-10-28T13:41:30.367Z,101468.28
2022-10-28T13:44:13.368Z,101467.78
2022-10-28T13:46:58.817Z,101476.06
2022-10-28T13:49:36.201Z,101467.53
2022-10-28T13:52:13.216Z,101466.50
2022-10-28T13:54:43.048Z,101474.78
2022-10-28T13:57:25.208Z,101479.28
2022-10-28T13:59:59.091Z,101481.72
2022-10-28T14:03:04.257Z,101488.53
2022-10-28T14:05:37.347Z,101495.41
2022-10-28T14:08:07.960Z,101496.66
2022-10-28T14:10:38.404Z,101503.78
2022-10-28T14:13:20.656Z,101496.63
2022-10-28T14:15:48.524Z,101495.94
2022-10-28T14:18:41.585Z,101508.16
2022-10-28T14:21:02.580Z,101504.03
2022-10-28T14:23:29.325Z,101511.34
2022-10-28T14:25:59.824Z,101503.66
2022-10-28T14:28:29.719Z,101503.78
2022-10-28T14:31:11.770Z,101507.72
2022-10-28T14:33:38.652Z,101501.44
2022-10-28T14:36:17.639Z,101508.88
2022-10-28T14:38:53.464Z,101505.84
2022-10-28T14:41:56.244Z,101514.72
2022-10-28T14:44:23.125Z,101520.56
2022-10-28T14:47:02.872Z,101527.31
2022-10-28T14:49:36.527Z,101526.47
2022-10-28T14:52:08.779Z,101521.03
2022-10-28T14:54:48.923Z,101522.63
2022-10-28T14:57:22.344Z,101519.81
2022-10-28T14:59:51.200Z,101528.47
2022-10-28T15:02:24.758Z,101518.06
2022-10-28T15:05:10.562Z,101519.09
2022-10-28T15:07:38.449Z,101522.97
2022-10-28T15:10:17.129Z,101524.44
2022-10-28T15:12:46.018Z,101526.38
2022-10-28T15:15:24.924Z,101531.56
2022-10-28T15:17:52.558Z,101536.28
2022-10-28T15:20:22.421Z,101534.94
2022-10-28T15:22:50.075Z,101532.91
2022-10-28T15:25:20.263Z,101536.97
2022-10-28T15:27:51.168Z,101536.81
2022-10-28T15:30:24.587Z,101539.00
2022-10-28T15:32:53.297Z,101535.94
2022-10-28T15:35:35.664Z,101539.88
2022-10-28T15:38:23.507Z,101537.47
2022-10-28T15:40:50.608Z,101557.44
2022-10-28T15:43:21.253Z,101547.69
2022-10-28T15:45:48.237Z,101550.97
2022-10-28T15:48:23.268Z,101548.25
2022-10-28T15:51:12.033Z,101548.44
2022-10-28T15:53:53.890Z,101556.16
2022-10-28T15:56:26.166Z,101563.97
2022-10-28T15:58:58.836Z,101569.28
2022-10-28T16:01:31.024Z,101566.38
2022-10-28T16:03:59.097Z,101563.88
2022-10-28T16:06:31.742Z,101575.91
2022-10-28T16:09:03.064Z,101574.25
2022-10-28T16:11:31.527Z,101572.44
2022-10-28T16:13:59.222Z,101573.56
2022-10-28T16:16:29.246Z,101575.03
2022-10-28T16:19:19.406Z,101583.94
2022-10-28T16:21:46.240Z,101589.53
2022-10-28T16:24:13.320Z,101588.97
2022-10-28T16:26:41.473Z,101599.56
2022-10-28T16:29:08.258Z,101605.16
2022-10-28T16:31:35.144Z,101615.28
2022-10-28T16:34:02.033Z,101624.81
2022-10-28T16:36:30.315Z,101619.34
2022-10-28T16:38:57.111Z,101614.94
2022-10-28T16:41:24.783Z,101621.50
2022-10-28T16:43:51.560Z,101611.63
2022-10-28T16:46:18.416Z,101620.84
2022-10-28T16:48:45.200Z,101620.16
2022-10-28T16:51:16.169Z,101623.16
2022-10-28T16:53:47.060Z,101627.75
2022-10-28T16:56:15.699Z,101632.63
2022-10-28T16:58:43.786Z,101645.06
2022-10-28T17:01:11.707Z,101640.53
2022-10-28T17:03:38.731Z,101629.75
2022-10-28T17:06:05.729Z,101637.47
2022-10-28T17:08:57.115Z,101647.16
2022-10-28T17:11:19.599Z,101654.53
2022-10-28T17:13:46.502Z,101645.25
2022-10-28T17:16:13.304Z,101653.44
2022-10-28T17:18:40.308Z,101665.41
2022-10-28T17:21:07.068Z,101666.38
2022-10-28T17:23:33.859Z,101680.25
2022-10-28T17:26:02.210Z,101674.06
2022-10-28T17:28:29.524Z,101663.97
2022-10-28T17:31:07.516Z,101679.19
2022-10-28T17:33:34.997Z,101686.56
2022-10-28T17:36:06.739Z,101684.69
2022-10-28T17:38:33.502Z,101688.00
2022-10-28T17:41:00.607Z,101688.41
2022-10-28T17:43:27.735Z,101703.34
2022-10-28T17:46:06.455Z,101695.56
2022-10-28T17:48:33.765Z,101692.59
2022-10-28T17:51:00.806Z,101707.78
2022-10-28T17:53:27.803Z,101717.38
2022-10-28T17:56:04.006Z,101718.91
2022-10-28T17:58:31.211Z,101722.28
2022-10-28T18:00:59.701Z,101725.03
2022-10-28T18:03:27.546Z,101724.00
2022-10-28T18:05:54.453Z,101736.78
2022-10-28T18:08:21.608Z,101734.16
2022-10-28T18:10:56.421Z,101731.41
2022-10-28T18:13:27.870Z,101746.06
2022-10-28T18:15:54.783Z,101743.78
2022-10-28T18:18:21.777Z,101742.59
2022-10-28T18:20:55.529Z,101746.50
2022-10-28T18:23:22.860Z,101746.31
2022-10-28T18:25:59.366Z,101740.44
2022-10-28T18:28:27.350Z,101742.34
2022-10-28T18:30:55.574Z,101752.94
2022-10-28T18:33:22.434Z,101762.16
2022-10-28T18:35:49.343Z,101760.94
2022-10-28T18:38:16.354Z,101759.84
2022-10-28T18:40:49.228Z,101755.38
2022-10-28T18:43:16.039Z,101752.22
2022-10-28T18:45:42.933Z,101761.13
2022-10-28T18:48:09.739Z,101772.72
2022-10-28T18:50:36.678Z,101776.88
2022-10-28T18:53:03.533Z,101780.38
2022-10-28T18:55:30.485Z,101793.47
2022-10-28T18:57:57.290Z,101793.25
2022-10-28T19:00:24.105Z,101788.66
2022-10-28T19:05:25.652Z,101818.22
2022-10-28T19:07:52.812Z,101816.66
2022-10-28T19:10:22.707Z,101821.41
2022-10-28T19:12:53.061Z,101820.16
2022-10-28T19:15:20.325Z,101812.91
2022-10-28T19:17:47.117Z,101809.91
2022-10-28T19:20:14.004Z,101798.84
2022-10-28T19:22:40.842Z,101794.69
2022-10-28T19:25:07.923Z,101789.84
2022-10-28T19:27:34.751Z,101802.25
2022-10-28T19:30:06.448Z,101810.59
2022-10-28T19:32:38.277Z,101822.59
2022-10-28T19:35:05.463Z,101829.03
2022-10-28T19:37:32.276Z,101822.78
2022-10-28T19:39:59.085Z,101825.19
2022-10-28T19:42:25.908Z,101831.69
2022-10-28T19:44:52.738Z,101836.19
2022-10-28T19:47:19.748Z,101847.28
2022-10-28T19:49:46.587Z,101837.28
2022-10-28T19:52:15.529Z,101845.06
2022-10-28T19:54:42.325Z,101850.44
2022-10-28T19:57:09.207Z,101851.94
2022-10-28T19:59:36.104Z,101860.56
2022-10-28T20:02:03.029Z,101879.59
2022-10-28T20:04:29.975Z,101883.88
2022-10-28T20:06:58.791Z,101880.72
2022-10-28T20:09:28.984Z,101870.53
2022-10-28T20:11:56.114Z,101873.31
2022-10-28T20:14:23.038Z,101871.78
2022-10-28T20:16:49.961Z,101879.59
2022-10-28T20:19:16.784Z,101881.81
2022-10-28T20:21:45.079Z,101883.75
2022-10-28T20:24:11.907Z,101890.31
2022-10-28T20:26:38.998Z,101890.75
2022-10-28T20:29:09.998Z,101893.31
2022-10-28T20:31:38.898Z,101901.13
2022-10-28T20:34:06.430Z,101917.34
2022-10-28T20:36:36.006Z,101921.81
2022-10-28T20:39:08.988Z,101912.19
2022-10-28T20:41:37.808Z,101910.50
2022-10-28T20:44:05.828Z,101915.78
2022-10-28T20:46:33.623Z,101918.59
2022-10-28T20:49:00.957Z,101921.81
2022-10-28T20:51:29.936Z,101933.16
2022-10-28T20:53:57.546Z,101942.88
2022-10-28T20:56:26.406Z,101941.31
2022-10-28T20:58:54.518Z,101939.81
2022-10-28T21:01:29.930Z,101934.66
2022-10-28T21:04:00.057Z,101930.03
2022-10-28T21:06:28.071Z,101923.44
2022-10-28T21:08:56.631Z,101932.84
2022-10-28T21:11:23.982Z,101922.34
2022-10-28T21:13:56.173Z,101923.81
2022-10-28T21:16:24.654Z,101929.94
2022-10-28T21:18:51.808Z,101946.91
2022-10-28T21:21:19.892Z,101942.81
2022-10-28T21:23:46.730Z,101946.13
2022-10-28T21:26:13.939Z,101950.78
2022-10-28T21:28:44.080Z,101945.81
2022-10-28T21:31:13.476Z,101943.09
2022-10-28T21:33:42.099Z,101946.28
2022-10-28T21:36:14.679Z,101945.72
2022-10-28T21:38:42.070Z,101949.97
2022-10-28T21:41:12.992Z,101959.50
2022-10-28T21:43:42.071Z,101964.28
2022-10-28T21:46:09.476Z,101956.94
2022-10-28T21:48:37.367Z,101957.34
2022-10-28T21:51:10.223Z,101953.97
2022-10-28T21:53:42.121Z,101964.00
2022-10-28T21:56:19.100Z,101954.16
2022-10-28T21:58:48.121Z,101958.53
2022-10-28T22:01:18.817Z,101961.19
2022-10-28T22:03:46.269Z,101954.81
2022-10-28T22:06:13.066Z,101943.97
2022-10-28T22:08:40.225Z,101949.56
2022-10-28T22:11:10.248Z,101952.50
2022-10-28T22:13:37.100Z,101966.44
2022-10-28T22:16:06.882Z,101969.47
2022-10-28T22:18:35.055Z,101974.03
2022-10-28T22:21:13.517Z,101973.63
2022-10-28T22:23:40.890Z,101972.09
2022-10-28T22:26:10.645Z,101974.47
2022-10-28T22:28:37.889Z,101973.31
2022-10-28T22:31:07.854Z,101979.41
2022-10-28T22:33:35.649Z,101987.25
2022-10-28T22:36:05.488Z,101990.53
2022-10-28T22:38:32.665Z,101994.78
2022-10-28T22:41:16.741Z,101998.81
2022-10-28T22:43:45.542Z,101992.19
2022-10-28T22:46:14.996Z,101992.97
2022-10-28T22:48:41.886Z,102003.41
2022-10-28T22:51:11.980Z,102003.06
2022-10-28T22:53:40.855Z,102003.50
2022-10-28T22:56:11.385Z,102008.78
2022-10-28T22:58:38.188Z,102007.72
2022-10-28T23:01:07.224Z,101993.84
2022-10-28T23:03:42.023Z,102000.31
2022-10-28T23:06:11.093Z,102003.56
2022-10-28T23:08:39.726Z,102012.09
2022-10-28T23:11:08.011Z,102012.47
2022-10-28T23:13:35.306Z,102014.16
2022-10-28T23:16:10.516Z,102023.38
2022-10-28T23:18:37.684Z,102026.66
2022-10-28T23:21:18.792Z,102016.66
2022-10-28T23:23:49.817Z,102023.16
2022-10-28T23:26:19.911Z,102014.81
2022-10-28T23:28:50.858Z,102023.84
2022-10-28T23:31:17.714Z,102025.13
2022-10-28T23:33:44.482Z,102019.91
2022-10-28T23:36:13.228Z,102028.94
2022-10-28T23:38:40.270Z,102023.53
2022-10-28T23:41:09.534Z,102013.38
2022-10-28T23:43:37.757Z,102034.66
2022-10-28T23:46:04.861Z,102032.97
2022-10-28T23:48:32.126Z,102031.69
2022-10-28T23:50:59.061Z,102030.66
2022-10-28T23:53:26.328Z,102028.50
2022-10-28T23:55:53.464Z,102034.72
2022-10-28T23:58:21.979Z,102022.72
